Time;durP1;ratioP1;P1;durP2;ratioP2;P2;SDS_P1;SDS_P2;PMS_P1;PMS_P2;Temp;Humidity;BMP_temperature;BMP_pressure;BME280_temperature;BME280_humidity;BME280_pressure;Samples;Min_cycle;Max_cycle;Signal;HPM_P1;HPM_P2
2022/07/03 00:02:02;;;;;;;0.60;0.50;;;22.60;55.30;;;;;;5014863;28;20224;-71
2022/07/03 00:04:28;;;;;;;0.70;0.70;;;22.60;55.30;;;;;;5015599;28;20176;-71
2022/07/03 00:06:54;;;;;;;1.73;0.88;;;22.60;55.40;;;;;;5014320;28;20514;-70
2022/07/03 00:09:19;;;;;;;0.80;0.70;;;22.60;55.40;;;;;;4997822;28;20276;-70
2022/07/03 00:11:45;;;;;;;1.15;0.88;;;22.60;55.40;;;;;;4997469;28;20264;-71
2022/07/03 00:14:10;;;;;;;0.93;0.70;;;22.60;55.40;;;;;;5014126;28;20259;-71
2022/07/03 00:16:36;;;;;;;1.48;0.80;;;22.60;55.40;;;;;;5014898;28;20227;-72
2022/07/03 00:19:02;;;;;;;0.65;0.63;;;22.60;55.40;;;;;;5014993;28;20231;-73
2022/07/03 00:21:46;;;;;;;0.63;0.63;;;22.60;55.40;;;;;;5013827;28;20168;-73
2022/07/03 00:24:47;;;;;;;1.90;0.75;;;22.60;55.40;;;;;;5014954;28;20199;-72
2022/07/03 00:27:12;;;;;;;1.40;0.82;;;22.60;55.40;;;;;;5009844;28;20191;-71
2022/07/03 00:29:40;;;;;;;0.80;0.80;;;22.60;55.40;;;;;;4997179;28;20173;-71
2022/07/03 00:32:08;;;;;;;1.05;0.55;;;22.60;55.50;;;;;;4997467;28;20542;-70
2022/07/03 00:34:33;;;;;;;0.68;0.52;;;22.60;55.40;;;;;;5013955;28;20216;-71
2022/07/03 00:36:58;;;;;;;1.05;0.70;;;22.60;55.40;;;;;;5014286;28;20175;-71
2022/07/03 00:39:24;;;;;;;2.08;0.77;;;22.60;55.40;;;;;;4980809;28;20199;-71
2022/07/03 00:41:59;;;;;;;0.60;0.60;;;22.50;55.40;;;;;;5013713;28;20173;-71
2022/07/03 00:44:25;;;;;;;1.02;0.90;;;22.60;55.40;;;;;;5014603;28;20181;-72
2022/07/03 00:46:51;;;;;;;1.08;0.73;;;22.50;55.30;;;;;;4996696;28;20203;-71
2022/07/03 00:49:17;;;;;;;1.02;0.60;;;22.50;55.40;;;;;;4980130;28;20627;-72
2022/07/03 00:51:42;;;;;;;0.90;0.77;;;22.50;55.40;;;;;;4980611;28;20180;-72
2022/07/03 00:54:09;;;;;;;1.00;0.77;;;22.60;55.50;;;;;;4996673;28;20208;-71
2022/07/03 00:56:34;;;;;;;0.60;0.60;;;22.50;55.40;;;;;;5013673;28;20176;-71
2022/07/03 00:59:00;;;;;;;0.65;0.55;;;22.50;55.40;;;;;;4996350;28;20226;-71
2022/07/03 01:01:30;;;;;;;1.05;0.95;;;22.50;55.40;;;;;;5013981;28;20266;-71
2022/07/03 01:04:34;;;;;;;1.40;0.85;;;22.50;55.40;;;;;;4995760;28;20621;-70
2022/07/03 01:07:07;;;;;;;0.93;0.60;;;22.50;55.50;;;;;;5013683;28;20659;-70
2022/07/03 01:09:54;;;;;;;0.82;0.70;;;22.50;55.40;;;;;;5013376;28;20180;-70
2022/07/03 01:12:49;;;;;;;1.10;0.85;;;22.50;55.50;;;;;;5013942;28;20180;-71
2022/07/03 01:15:52;;;;;;;0.55;0.50;;;22.50;55.50;;;;;;5014047;28;20216;-71
2022/07/03 01:18:36;;;;;;;1.10;0.70;;;22.50;55.50;;;;;;5013840;28;20275;-72
2022/07/03 01:21:15;;;;;;;0.90;0.60;;;22.50;55.50;;;;;;5013708;28;20590;-74
2022/07/03 01:23:57;;;;;;;0.88;0.60;;;22.50;55.50;;;;;;5013040;28;20195;-72
2022/07/03 01:26:24;;;;;;;0.60;0.60;;;22.40;55.50;;;;;;4996854;28;20176;-71
2022/07/03 01:28:49;;;;;;;1.15;0.82;;;22.50;55.50;;;;;;4996136;28;20176;-70
2022/07/03 01:31:20;;;;;;;1.02;0.70;;;22.50;55.50;;;;;;4994814;28;20230;-70
2022/07/03 01:33:45;;;;;;;1.33;0.90;;;22.40;55.50;;;;;;5013529;28;20258;-70
2022/07/03 01:36:12;;;;;;;1.80;0.63;;;22.40;55.50;;;;;;4979878;28;20586;-70
2022/07/03 01:38:40;;;;;;;1.27;0.80;;;22.40;55.50;;;;;;4995358;28;20199;-71
2022/07/03 01:41:07;;;;;;;0.90;0.70;;;22.40;55.50;;;;;;5013393;28;20180;-72
2022/07/03 01:43:49;;;;;;;0.95;0.80;;;22.40;55.50;;;;;;5013559;28;20176;-71
2022/07/03 01:46:16;;;;;;;0.93;0.70;;;22.40;55.40;;;;;;5012623;28;20263;-71
2022/07/03 01:48:43;;;;;;;1.42;0.80;;;22.40;55.40;;;;;;5013387;28;20181;-71
2022/07/03 01:51:13;;;;;;;1.63;0.80;;;22.40;55.40;;;;;;5012553;28;20690;-71
2022/07/03 01:53:38;;;;;;;1.13;0.80;;;22.40;55.50;;;;;;4996155;28;20216;-71
2022/07/03 01:56:04;;;;;;;0.73;0.73;;;22.40;55.50;;;;;;4979488;28;20179;-71
2022/07/03 01:58:29;;;;;;;0.63;0.63;;;22.40;55.50;;;;;;4978787;28;20207;-71
2022/07/03 02:01:04;;;;;;;0.85;0.77;;;22.40;56.10;;;;;;5012696;28;21166;-71
2022/07/03 02:03:31;;;;;;;0.80;0.80;;;22.40;55.60;;;;;;5013381;28;20191;-71
2022/07/03 02:06:03;;;;;;;1.55;0.80;;;22.40;55.70;;;;;;5012148;28;20180;-71
2022/07/03 02:08:47;;;;;;;0.73;0.73;;;22.40;55.60;;;;;;4996151;28;20597;-70
2022/07/03 02:11:20;;;;;;;0.80;0.75;;;22.40;55.70;;;;;;5013035;28;20172;-71
2022/07/03 02:13:51;;;;;;;1.25;1.10;;;22.40;55.70;;;;;;5012199;28;20204;-71
2022/07/03 02:16:19;;;;;;;1.33;1.05;;;22.30;55.60;;;;;;5013541;28;20231;-71
2022/07/03 02:18:45;;;;;;;1.00;0.90;;;22.30;55.60;;;;;;5012970;28;20256;-72
2022/07/03 02:21:14;;;;;;;2.47;1.20;;;22.30;55.60;;;;;;4978415;28;20267;-72
2022/07/03 02:23:48;;;;;;;1.10;0.80;;;22.30;55.50;;;;;;5012578;28;20638;-73
2022/07/03 02:26:14;;;;;;;1.23;1.00;;;22.30;55.50;;;;;;4994923;28;20549;-71
2022/07/03 02:29:03;;;;;;;2.08;1.13;;;22.30;55.40;;;;;;4995321;28;20239;-70
2022/07/03 02:31:29;;;;;;;1.00;0.93;;;22.30;55.50;;;;;;4996008;28;20176;-70
2022/07/03 02:33:57;;;;;;;1.60;0.90;;;22.30;55.40;;;;;;4978262;28;20777;-70
2022/07/03 02:36:23;;;;;;;1.25;0.90;;;22.30;55.50;;;;;;5013024;28;20177;-71
2022/07/03 02:38:51;;;;;;;1.30;0.90;;;22.30;55.60;;;;;;4979095;28;20187;-72
2022/07/03 02:41:24;;;;;;;2.42;0.95;;;22.30;55.60;;;;;;4994608;28;20544;-71
2022/07/03 02:43:59;;;;;;;3.03;1.15;;;22.30;55.60;;;;;;4998281;28;20192;-71
2022/07/03 02:46:50;;;;;;;1.00;0.90;;;22.30;55.50;;;;;;5016665;28;20174;-71
2022/07/03 02:49:48;;;;;;;1.67;1.10;;;22.30;55.40;;;;;;5016091;28;20183;-71
2022/07/03 02:52:32;;;;;;;1.30;1.02;;;22.30;55.50;;;;;;5016585;28;20173;-71
2022/07/03 02:55:05;;;;;;;2.25;0.90;;;22.30;55.40;;;;;;5015292;28;20223;-71
2022/07/03 02:57:38;;;;;;;1.20;1.10;;;22.30;55.50;;;;;;4983855;28;20264;-71
2022/07/03 03:00:04;;;;;;;0.93;0.90;;;22.30;55.40;;;;;;5016203;28;20643;-71
2022/07/03 03:02:57;;;;;;;1.35;1.00;;;22.30;55.50;;;;;;5015398;28;20297;-71
2022/07/03 03:05:27;;;;;;;1.70;1.10;;;22.30;55.50;;;;;;4998726;28;20264;-71
2022/07/03 03:08:24;;;;;;;1.40;0.95;;;22.30;55.50;;;;;;5016120;28;20191;-70
2022/07/03 03:10:50;;;;;;;1.52;1.10;;;22.30;55.60;;;;;;5015936;28;20271;-71
2022/07/03 03:13:16;;;;;;;4.20;1.25;;;22.30;55.60;;;;;;5015933;28;20200;-71
2022/07/03 03:15:47;;;;;;;1.30;0.88;;;22.30;55.50;;;;;;5015124;28;20185;-72
2022/07/03 03:18:13;;;;;;;1.90;1.15;;;22.30;55.60;;;;;;4983126;28;20180;-72
2022/07/03 03:20:39;;;;;;;1.02;1.02;;;22.30;55.60;;;;;;4982287;28;20172;-73
2022/07/03 03:23:18;;;;;;;2.13;1.20;;;22.30;55.60;;;;;;5015242;28;20172;-74
2022/07/03 03:25:44;;;;;;;1.30;1.10;;;22.30;55.60;;;;;;5015792;28;20184;-71
2022/07/03 03:28:09;;;;;;;1.45;1.10;;;22.30;55.60;;;;;;4998300;28;20627;-71
2022/07/03 03:30:35;;;;;;;1.17;0.90;;;22.30;55.50;;;;;;4981705;28;20580;-71
2022/07/03 03:33:01;;;;;;;1.35;1.00;;;22.20;55.50;;;;;;5015630;28;20218;-70
2022/07/03 03:35:27;;;;;;;1.13;0.90;;;22.20;55.50;;;;;;5015607;28;20725;-71
2022/07/03 03:37:53;;;;;;;1.60;1.42;;;22.30;55.60;;;;;;5014769;28;20263;-71
2022/07/03 03:40:19;;;;;;;1.90;1.23;;;22.20;55.50;;;;;;4998247;28;20314;-72
2022/07/03 03:42:44;;;;;;;1.60;1.00;;;22.20;55.40;;;;;;4997865;28;20224;-71
2022/07/03 03:45:10;;;;;;;1.63;1.20;;;22.20;55.40;;;;;;5014788;28;20649;-72
2022/07/03 03:47:35;;;;;;;1.10;1.00;;;22.20;55.40;;;;;;5015766;28;20188;-71
2022/07/03 03:50:02;;;;;;;1.33;1.20;;;22.30;55.40;;;;;;4997812;28;20574;-71
2022/07/03 03:52:28;;;;;;;2.30;1.20;;;22.30;55.50;;;;;;5014776;28;20209;-71
2022/07/03 03:54:54;;;;;;;2.60;1.38;;;22.20;55.40;;;;;;4996875;28;20694;-71
2022/07/03 03:57:20;;;;;;;1.33;1.20;;;22.30;55.40;;;;;;5015352;28;20180;-71
2022/07/03 03:59:47;;;;;;;1.52;1.20;;;22.30;55.40;;;;;;5014227;28;20220;-71
2022/07/03 04:02:12;;;;;;;2.45;1.52;;;22.30;55.40;;;;;;5015022;28;20251;-71
2022/07/03 04:04:38;;;;;;;1.20;1.10;;;22.30;55.40;;;;;;5014273;28;20521;-71
2022/07/03 04:07:03;;;;;;;1.10;1.00;;;22.30;55.40;;;;;;5015021;28;20264;-70
2022/07/03 04:09:29;;;;;;;1.40;1.30;;;22.30;55.40;;;;;;5015039;28;20177;-70
2022/07/03 04:11:54;;;;;;;1.42;1.00;;;22.30;55.40;;;;;;5013928;28;20182;-71
2022/07/03 04:14:20;;;;;;;1.40;1.13;;;22.30;55.30;;;;;;5015068;28;20306;-71
2022/07/03 04:16:45;;;;;;;2.80;1.15;;;22.30;55.40;;;;;;5015079;28;20173;-72
2022/07/03 04:19:11;;;;;;;1.05;0.95;;;22.30;55.30;;;;;;5014323;28;20180;-73
2022/07/03 04:21:36;;;;;;;1.10;1.10;;;22.30;55.40;;;;;;5014719;28;20172;-72
2022/07/03 04:24:02;;;;;;;2.08;1.35;;;22.30;55.30;;;;;;5014885;28;20283;-72
2022/07/03 04:26:27;;;;;;;1.42;1.10;;;22.30;55.30;;;;;;5013996;28;20627;-71
2022/07/03 04:28:53;;;;;;;1.15;1.02;;;22.30;55.40;;;;;;5014591;28;20218;-71
2022/07/03 04:31:18;;;;;;;1.20;1.10;;;22.30;55.40;;;;;;5014796;28;20222;-70
2022/07/03 04:33:44;;;;;;;1.02;0.98;;;22.30;55.40;;;;;;5013784;28;20209;-71
2022/07/03 04:36:09;;;;;;;1.40;1.00;;;22.20;55.40;;;;;;5014569;28;20271;-71
2022/07/03 04:38:35;;;;;;;1.15;1.05;;;22.30;55.40;;;;;;5014508;28;20263;-72
2022/07/03 04:41:00;;;;;;;1.20;1.10;;;22.20;55.40;;;;;;5013556;28;20508;-72
2022/07/03 04:43:26;;;;;;;1.48;1.10;;;22.20;55.40;;;;;;5014403;28;20715;-72
2022/07/03 04:45:51;;;;;;;1.33;1.08;;;22.20;55.50;;;;;;5014116;28;20259;-72
2022/07/03 04:48:17;;;;;;;0.95;0.90;;;22.20;55.50;;;;;;5013750;28;20275;-71
2022/07/03 04:50:42;;;;;;;1.02;1.00;;;22.20;55.50;;;;;;5014185;28;20260;-72
2022/07/03 04:53:08;;;;;;;1.35;1.25;;;22.20;55.50;;;;;;5014216;28;20173;-71
2022/07/03 04:55:33;;;;;;;1.63;1.00;;;22.20;55.50;;;;;;5013593;28;20188;-71
2022/07/03 04:57:59;;;;;;;1.15;1.05;;;22.20;55.60;;;;;;5013820;28;20291;-72
2022/07/03 05:00:25;;;;;;;1.63;1.02;;;22.20;55.60;;;;;;5014053;28;20722;-72
2022/07/03 05:02:50;;;;;;;1.27;1.15;;;22.20;55.60;;;;;;5012979;28;20323;-72
2022/07/03 05:05:16;;;;;;;1.52;1.00;;;22.20;55.60;;;;;;5014257;28;20175;-71
2022/07/03 05:07:41;;;;;;;1.48;1.17;;;22.20;55.60;;;;;;5012825;28;20172;-70
2022/07/03 05:10:07;;;;;;;2.30;1.25;;;22.30;55.50;;;;;;5013205;28;20180;-70
2022/07/03 05:12:33;;;;;;;2.72;1.38;;;22.30;55.50;;;;;;5014213;28;20192;-71
2022/07/03 05:14:58;;;;;;;2.13;1.63;;;22.30;55.50;;;;;;5012815;28;20623;-72
2022/07/03 05:17:24;;;;;;;1.42;1.30;;;22.30;55.40;;;;;;5013970;28;20639;-72
2022/07/03 05:20:23;;;;;;;1.55;1.40;;;22.30;55.50;;;;;;5013639;28;20528;-73
2022/07/03 05:22:35;;;;;;;1.38;0.98;;;22.30;55.50;;;;;;5012839;28;20184;-72
2022/07/03 05:25:00;;;;;;;1.88;1.10;;;22.40;55.50;;;;;;5013559;28;20181;-72
2022/07/03 05:27:26;;;;;;;1.40;1.30;;;22.40;55.50;;;;;;5013835;28;20177;-71
2022/07/03 05:29:51;;;;;;;1.33;1.23;;;22.40;55.50;;;;;;5012617;28;20544;-70
2022/07/03 05:32:17;;;;;;;2.85;1.40;;;22.40;55.40;;;;;;5013664;28;20619;-70
2022/07/03 05:34:42;;;;;;;1.30;1.20;;;22.40;55.40;;;;;;5013298;28;20208;-71
2022/07/03 05:37:08;;;;;;;2.15;1.10;;;22.40;55.50;;;;;;5012782;28;20176;-71
2022/07/03 05:39:33;;;;;;;1.83;1.15;;;22.30;55.50;;;;;;5013485;28;20179;-71
2022/07/03 05:41:59;;;;;;;1.85;1.27;;;22.30;55.60;;;;;;5013323;28;20165;-71
2022/07/03 05:44:25;;;;;;;1.00;1.00;;;22.30;55.60;;;;;;5012606;28;20176;-72
2022/07/03 05:46:50;;;;;;;1.42;1.00;;;22.30;55.60;;;;;;5012978;28;20259;-71
2022/07/03 05:49:16;;;;;;;1.13;1.00;;;22.30;55.60;;;;;;5013332;28;20268;-72
2022/07/03 05:51:41;;;;;;;3.72;1.33;;;22.30;55.60;;;;;;5012420;28;20635;-71
2022/07/03 05:54:08;;;;;;;0.85;0.85;;;22.30;55.50;;;;;;5012965;28;20254;-71
2022/07/03 05:56:33;;;;;;;1.20;1.02;;;22.30;55.50;;;;;;5013432;28;20180;-71
2022/07/03 05:58:59;;;;;;;1.00;0.88;;;22.30;55.60;;;;;;5012265;28;20536;-71
2022/07/03 06:01:24;;;;;;;1.13;0.80;;;22.30;55.60;;;;;;5012947;28;20667;-71
2022/07/03 06:03:50;;;;;;;1.20;1.10;;;22.30;55.60;;;;;;5012728;28;20184;-71
2022/07/03 06:06:15;;;;;;;1.73;1.30;;;22.30;55.60;;;;;;5012437;28;20275;-70
2022/07/03 06:08:41;;;;;;;2.40;1.20;;;22.30;55.60;;;;;;5012744;28;20172;-70
2022/07/03 06:11:06;;;;;;;1.30;1.20;;;22.30;55.50;;;;;;5012936;28;20176;-70
2022/07/03 06:13:32;;;;;;;1.45;1.00;;;22.40;55.50;;;;;;5012405;28;20197;-71
2022/07/03 06:15:57;;;;;;;1.38;1.10;;;22.30;55.50;;;;;;5012770;28;20172;-71
2022/07/03 06:18:23;;;;;;;2.38;0.90;;;22.40;55.50;;;;;;5015941;28;20171;-72
2022/07/03 06:20:48;;;;;;;1.65;1.30;;;22.40;55.50;;;;;;5019378;28;20195;-73
2022/07/03 06:23:14;;;;;;;1.17;1.00;;;22.40;55.40;;;;;;5019505;28;20544;-72
2022/07/03 06:25:39;;;;;;;1.40;1.10;;;22.40;55.40;;;;;;5018578;28;20544;-71
2022/07/03 06:28:05;;;;;;;1.35;1.25;;;22.40;55.40;;;;;;5019276;28;20175;-69
2022/07/03 06:30:30;;;;;;;1.60;1.10;;;22.40;55.30;;;;;;5019538;28;20191;-68
2022/07/03 06:32:56;;;;;;;1.27;1.02;;;22.40;55.30;;;;;;5018320;28;20188;-69
2022/07/03 06:35:21;;;;;;;2.65;1.30;;;22.40;55.30;;;;;;5019229;28;20223;-72
2022/07/03 06:37:47;;;;;;;2.53;1.20;;;22.40;55.60;;;;;;5019068;28;20183;-71
2022/07/03 06:40:12;;;;;;;2.45;1.20;;;22.50;55.70;;;;;;5018739;28;20177;-71
2022/07/03 06:42:38;;;;;;;1.00;0.90;;;22.50;55.40;;;;;;5019061;28;20537;-71
2022/07/03 06:45:04;;;;;;;3.38;1.17;;;22.50;55.40;;;;;;5019151;28;20654;-66
2022/07/03 06:47:29;;;;;;;3.22;1.40;;;22.60;55.80;;;;;;5018482;28;20243;-71
2022/07/03 06:49:55;;;;;;;2.00;1.23;;;22.60;55.60;;;;;;5019172;28;20196;-70
2022/07/03 06:52:20;;;;;;;7.28;1.15;;;22.60;55.60;;;;;;5019120;28;20267;-70
2022/07/03 06:54:46;;;;;;;2.97;1.25;;;22.50;55.50;;;;;;5018411;28;20562;-70
2022/07/03 06:57:12;;;;;;;1.65;1.00;;;22.50;55.50;;;;;;5019221;28;20690;-70
2022/07/03 06:59:38;;;;;;;3.30;0.98;;;22.50;55.50;;;;;;5019018;28;20183;-69
2022/07/03 07:02:03;;;;;;;1.20;1.10;;;22.50;55.50;;;;;;5018250;28;20220;-68
2022/07/03 07:04:29;;;;;;;2.22;1.08;;;22.50;55.50;;;;;;5019232;28;20263;-69
2022/07/03 07:06:54;;;;;;;1.52;1.10;;;22.50;55.50;;;;;;5018682;28;20196;-68
2022/07/03 07:09:20;;;;;;;3.58;1.48;;;22.60;55.50;;;;;;5018551;28;20602;-67
2022/07/03 07:11:45;;;;;;;4.13;1.25;;;22.60;55.50;;;;;;5019013;28;20168;-68
2022/07/03 07:14:11;;;;;;;2.95;1.20;;;22.60;55.40;;;;;;5018943;28;20266;-68
2022/07/03 07:16:36;;;;;;;1.30;1.02;;;22.60;55.40;;;;;;5018231;28;20222;-69
2022/07/03 07:19:02;;;;;;;1.58;1.20;;;22.60;55.40;;;;;;5018882;28;20172;-71
2022/07/03 07:21:28;;;;;;;2.50;1.10;;;22.60;55.40;;;;;;5018817;28;20258;-71
2022/07/03 07:23:53;;;;;;;2.90;1.40;;;22.60;55.40;;;;;;5018156;28;20712;-70
2022/07/03 07:26:20;;;;;;;2.03;1.15;;;22.50;55.30;;;;;;5018998;28;20172;-69
2022/07/03 07:28:46;;;;;;;2.90;1.20;;;22.60;55.40;;;;;;5017614;28;20179;-69
2022/07/03 07:31:11;;;;;;;3.22;1.35;;;22.60;55.30;;;;;;5015094;28;20203;-68
2022/07/03 07:33:37;;;;;;;2.30;1.20;;;22.60;55.30;;;;;;5015560;28;20569;-68
2022/07/03 07:36:03;;;;;;;3.70;1.10;;;22.60;55.30;;;;;;5019703;28;20657;-69
2022/07/03 07:38:28;;;;;;;2.08;0.98;;;22.60;55.20;;;;;;5020520;28;20188;-69
2022/07/03 07:40:54;;;;;;;0.65;0.65;;;22.60;55.20;;;;;;5032866;28;20640;-70
2022/07/03 07:43:19;;;;;;;2.20;1.10;;;22.60;55.20;;;;;;5032336;28;20180;-70
2022/07/03 07:45:45;;;;;;;2.53;1.13;;;22.60;55.30;;;;;;5015293;28;20572;-70
2022/07/03 07:48:10;;;;;;;2.42;1.23;;;22.60;55.20;;;;;;5015453;28;20667;-69
2022/07/03 07:50:36;;;;;;;2.38;1.08;;;22.60;55.10;;;;;;5014676;28;20218;-70
2022/07/03 07:53:01;;;;;;;1.75;1.10;;;22.60;55.10;;;;;;5015454;28;20184;-69
2022/07/03 07:55:27;;;;;;;1.13;0.80;;;22.70;55.10;;;;;;5015171;28;20212;-70
2022/07/03 07:57:52;;;;;;;2.65;1.02;;;22.70;55.00;;;;;;5014159;28;20184;-70
2022/07/03 08:00:18;;;;;;;6.78;1.17;;;22.70;55.50;;;;;;5015275;28;20183;-69
2022/07/03 08:05:37;;;;;;;3.45;0.95;;;22.70;55.00;;;;;;5014563;28;20257;-70
2022/07/03 08:08:13;;;;;;;1.77;0.85;;;22.70;55.00;;;;;;5015252;28;20172;-66
2022/07/03 08:10:42;;;;;;;4.70;0.98;;;22.70;55.00;;;;;;5015027;28;20176;-67
2022/07/03 08:13:08;;;;;;;5.00;1.17;;;22.80;55.00;;;;;;5014226;28;20208;-68
2022/07/03 08:15:33;;;;;;;5.85;1.45;;;22.80;56.00;;;;;;5014892;28;20220;-68
2022/07/03 08:17:59;;;;;;;3.33;0.85;;;22.80;55.00;;;;;;5018304;28;20202;-69
2022/07/03 08:20:25;;;;;;;5.25;0.90;;;22.80;54.90;;;;;;5031966;28;20229;-69
2022/07/03 08:22:50;;;;;;;4.32;1.27;;;22.80;54.80;;;;;;5034558;28;20506;-70
2022/07/03 08:25:16;;;;;;;3.88;1.23;;;22.90;54.80;;;;;;5034042;28;20206;-68
2022/07/03 08:27:41;;;;;;;3.75;0.95;;;22.90;54.80;;;;;;5034418;28;20168;-67
2022/07/03 08:30:07;;;;;;;5.43;1.20;;;22.90;54.60;;;;;;5034483;28;20183;-67
2022/07/03 08:32:33;;;;;;;3.17;1.33;;;22.90;54.60;;;;;;5033973;28;20180;-66
2022/07/03 08:34:58;;;;;;;3.17;1.33;;;22.90;54.60;;;;;;5034247;28;20216;-66
2022/07/03 08:37:26;;;;;;;2.30;1.08;;;22.90;54.70;;;;;;5034464;28;20199;-67
2022/07/03 08:39:51;;;;;;;3.30;0.75;;;23.00;54.70;;;;;;5033392;28;20187;-67
2022/07/03 08:42:17;;;;;;;1.80;0.88;;;22.90;54.50;;;;;;5034080;28;20243;-67
2022/07/03 08:44:43;;;;;;;1.60;0.90;;;23.00;54.50;;;;;;5033898;28;20653;-68
2022/07/03 08:47:09;;;;;;;2.60;0.70;;;23.00;54.60;;;;;;5033305;28;20589;-68
2022/07/03 08:49:34;;;;;;;1.85;1.10;;;23.10;54.80;;;;;;5016696;28;20179;-67
2022/07/03 08:52:00;;;;;;;5.57;1.00;;;23.10;54.70;;;;;;5033668;28;20603;-67
2022/07/03 08:54:25;;;;;;;2.92;1.20;;;23.10;54.60;;;;;;5033207;28;20212;-68
2022/07/03 08:56:51;;;;;;;1.23;0.75;;;23.10;54.50;;;;;;5033806;28;20207;-68
2022/07/03 08:59:16;;;;;;;1.77;1.00;;;23.10;54.40;;;;;;5016329;28;20218;-69
2022/07/03 09:01:44;;;;;;;1.75;0.90;;;23.10;54.50;;;;;;5015311;28;20227;-69
2022/07/03 09:04:11;;;;;;;2.47;0.80;;;23.20;54.40;;;;;;5016354;28;20230;-68
2022/07/03 09:06:36;;;;;;;4.68;0.85;;;23.20;54.40;;;;;;5016356;28;20180;-68
2022/07/03 09:09:02;;;;;;;1.52;0.73;;;23.20;54.50;;;;;;5015314;28;20579;-69
2022/07/03 09:11:28;;;;;;;5.32;1.65;;;23.20;54.30;;;;;;5033808;28;20175;-73
2022/07/03 09:13:53;;;;;;;3.58;1.02;;;23.20;54.30;;;;;;5033251;28;20326;-75
2022/07/03 09:16:19;;;;;;;6.40;1.42;;;23.20;54.30;;;;;;5032873;28;20270;-76
2022/07/03 09:18:45;;;;;;;2.60;0.80;;;23.20;54.30;;;;;;5033504;28;20263;-76
2022/07/03 09:21:10;;;;;;;3.22;1.10;;;23.20;54.20;;;;;;5032731;28;20203;-76
2022/07/03 09:23:41;;;;;;;4.85;1.02;;;23.30;54.20;;;;;;5033688;28;20184;-75
2022/07/03 09:26:11;;;;;;;1.70;0.80;;;23.30;54.20;;;;;;5033457;28;20176;-73
2022/07/03 09:28:53;;;;;;;3.47;0.80;;;23.30;54.20;;;;;;5032455;28;20186;-73
2022/07/03 09:31:20;;;;;;;3.13;0.88;;;23.30;54.00;;;;;;5033300;28;20622;-72
2022/07/03 09:34:01;;;;;;;3.38;1.20;;;23.30;53.80;;;;;;5032933;28;20208;-73
2022/07/03 09:36:46;;;;;;;1.40;0.82;;;23.30;53.90;;;;;;5032762;28;20186;-72
2022/07/03 09:39:25;;;;;;;3.20;1.15;;;23.30;53.70;;;;;;5033313;28;20175;-74
2022/07/03 09:41:55;;;;;;;1.83;0.80;;;23.40;53.80;;;;;;5033023;28;20254;-74
2022/07/03 09:44:33;;;;;;;4.30;1.23;;;23.40;53.70;;;;;;5032437;28;20180;-73
2022/07/03 09:47:13;;;;;;;2.53;1.00;;;23.40;53.80;;;;;;5032877;28;20191;-74
2022/07/03 09:49:57;;;;;;;4.22;1.08;;;23.40;53.80;;;;;;5032300;28;20225;-74
2022/07/03 09:53:01;;;;;;;2.15;0.95;;;23.40;53.70;;;;;;5032658;28;20172;-73
2022/07/03 09:55:26;;;;;;;2.65;1.10;;;23.40;53.70;;;;;;4952644;29;20210;-74
2022/07/03 09:57:52;;;;;;;2.00;0.60;;;23.40;53.70;;;;;;4951782;29;20204;-74
2022/07/03 10:00:20;;;;;;;1.23;0.77;;;23.50;53.70;;;;;;4989946;28;20567;-74
2022/07/03 10:03:05;;;;;;;1.63;0.85;;;23.50;53.60;;;;;;5032636;28;20231;-75
2022/07/03 10:05:35;;;;;;;4.75;1.45;;;23.50;53.50;;;;;;5032142;28;20183;-72
2022/07/03 10:08:07;;;;;;;1.60;0.70;;;23.50;53.50;;;;;;5032513;28;20183;-71
2022/07/03 10:10:37;;;;;;;1.77;0.98;;;23.50;53.40;;;;;;5032325;28;20203;-72
2022/07/03 10:13:03;;;;;;;1.65;0.85;;;23.60;53.50;;;;;;5032810;28;20226;-72
2022/07/03 10:15:29;;;;;;;1.40;0.75;;;23.60;53.50;;;;;;5032665;28;20219;-74
2022/07/03 10:17:56;;;;;;;2.03;0.95;;;23.60;53.40;;;;;;5031756;28;20180;-75
2022/07/03 10:20:32;;;;;;;1.10;0.70;;;23.60;53.40;;;;;;5032649;28;20180;-74
2022/07/03 10:22:57;;;;;;;1.48;0.80;;;23.60;53.40;;;;;;5015080;28;20630;-75
2022/07/03 10:25:23;;;;;;;2.00;0.90;;;23.60;53.30;;;;;;5032199;28;20199;-73
2022/07/03 10:27:49;;;;;;;1.77;0.60;;;23.60;53.40;;;;;;5032446;28;20543;-72
2022/07/03 10:30:16;;;;;;;2.95;0.90;;;23.50;53.70;;;;;;5032762;28;20680;-72
2022/07/03 10:32:43;;;;;;;1.17;0.95;;;23.60;53.70;;;;;;5031676;28;20212;-72
2022/07/03 10:35:09;;;;;;;0.90;0.65;;;23.60;53.70;;;;;;5032392;28;20219;-73
2022/07/03 10:38:00;;;;;;;3.08;0.80;;;23.60;53.60;;;;;;5014848;28;20498;-72
2022/07/03 10:46:21;;;;;;;1.52;0.90;;;23.70;53.70;;;;;;5016773;28;20546;-73
2022/07/03 10:49:08;;;;;;;1.10;0.65;;;23.60;53.60;;;;;;5015092;28;20625;-74
2022/07/03 10:51:45;;;;;;;2.38;0.85;;;23.70;53.60;;;;;;5032361;28;20569;-73
2022/07/03 10:54:15;;;;;;;1.20;1.00;;;23.70;53.50;;;;;;5031513;28;20581;-73
2022/07/03 10:56:58;;;;;;;1.52;0.80;;;23.70;53.50;;;;;;5032280;28;20183;-73
2022/07/03 10:59:36;;;;;;;1.00;0.70;;;23.70;53.50;;;;;;5032477;28;20188;-74
2022/07/03 11:02:37;;;;;;;1.15;1.05;;;23.70;53.60;;;;;;5032050;28;20241;-73
2022/07/03 11:05:22;;;;;;;1.85;0.85;;;23.70;53.60;;;;;;5033761;28;20213;-72
2022/07/03 11:07:51;;;;;;;1.05;0.80;;;23.70;53.50;;;;;;5035162;28;20727;-72
2022/07/03 11:10:17;;;;;;;1.95;0.90;;;23.70;53.60;;;;;;5036020;28;20180;-71
2022/07/03 11:13:16;;;;;;;1.05;0.70;;;23.70;53.60;;;;;;5035647;28;20175;-72
2022/07/03 11:15:50;;;;;;;1.02;0.80;;;23.70;53.50;;;;;;5034974;28;20258;-73
2022/07/03 11:18:32;;;;;;;1.33;0.70;;;23.80;53.50;;;;;;5035892;28;20171;-73
2022/07/03 11:21:15;;;;;;;0.73;0.65;;;23.80;53.50;;;;;;5034790;28;20548;-75
2022/07/03 11:23:53;;;;;;;1.15;0.93;;;23.90;53.50;;;;;;5035526;28;20179;-74
2022/07/03 11:26:21;;;;;;;1.13;0.80;;;23.80;53.50;;;;;;5035738;28;20182;-73
2022/07/03 11:28:46;;;;;;;1.60;0.70;;;23.80;53.40;;;;;;5034798;28;20238;-73
2022/07/03 11:31:15;;;;;;;1.92;0.80;;;23.70;53.50;;;;;;5035311;28;20172;-73
2022/07/03 11:33:53;;;;;;;1.02;0.77;;;23.80;53.50;;;;;;5035160;28;20666;-72
2022/07/03 11:36:21;;;;;;;1.27;0.80;;;23.70;53.60;;;;;;5034946;28;20183;-72
2022/07/03 11:39:07;;;;;;;1.90;0.98;;;23.70;53.60;;;;;;5035364;28;20172;-73
2022/07/03 11:41:36;;;;;;;1.52;0.70;;;23.60;53.60;;;;;;5035356;28;20230;-73
2022/07/03 11:44:06;;;;;;;0.90;0.68;;;23.70;53.60;;;;;;5034430;28;20222;-75
2022/07/03 11:46:35;;;;;;;0.75;0.60;;;23.60;53.70;;;;;;5035237;28;20630;-74
2022/07/03 11:49:11;;;;;;;1.27;0.90;;;23.60;53.80;;;;;;5034479;28;20183;-75
2022/07/03 11:51:37;;;;;;;1.00;0.68;;;23.60;53.80;;;;;;5035047;28;20217;-74
2022/07/03 11:54:03;;;;;;;1.83;0.70;;;23.60;53.80;;;;;;5034890;28;20203;-73
2022/07/03 11:56:29;;;;;;;0.80;0.70;;;23.70;53.60;;;;;;5034328;28;20172;-73
2022/07/03 11:58:56;;;;;;;0.93;0.75;;;23.60;53.60;;;;;;5017471;28;20179;-74
2022/07/03 12:01:25;;;;;;;1.00;0.90;;;23.60;53.70;;;;;;5035053;28;20302;-74
2022/07/03 12:04:14;;;;;;;1.00;0.80;;;23.50;53.70;;;;;;5033979;28;20207;-74
2022/07/03 12:06:51;;;;;;;0.73;0.60;;;23.60;53.60;;;;;;5034721;28;20619;-72
2022/07/03 12:09:33;;;;;;;1.08;0.70;;;23.60;53.60;;;;;;5035145;28;20180;-71
2022/07/03 12:12:03;;;;;;;1.48;0.60;;;23.70;53.60;;;;;;5034020;28;20215;-72
2022/07/03 12:14:48;;;;;;;1.75;0.80;;;23.70;53.40;;;;;;5034701;28;20712;-73
2022/07/03 12:17:32;;;;;;;0.75;0.63;;;23.70;53.30;;;;;;5033552;28;20179;-73
2022/07/03 12:19:58;;;;;;;1.05;0.65;;;23.60;53.30;;;;;;5034637;28;20203;-73
2022/07/03 12:22:25;;;;;;;1.27;0.80;;;23.70;53.30;;;;;;5034912;28;20183;-74
2022/07/03 12:25:01;;;;;;;1.35;0.77;;;23.70;53.20;;;;;;5033946;28;20180;-74
2022/07/03 12:27:27;;;;;;;0.80;0.80;;;23.70;53.40;;;;;;5034623;28;20175;-72
2022/07/03 12:29:52;;;;;;;0.68;0.60;;;23.70;53.40;;;;;;5016551;28;20175;-72
2022/07/03 12:32:18;;;;;;;0.65;0.52;;;23.70;53.20;;;;;;5016295;28;20198;-72
2022/07/03 12:34:43;;;;;;;1.15;0.43;;;23.70;53.00;;;;;;5016773;28;20219;-72
2022/07/03 12:37:09;;;;;;;0.77;0.65;;;23.80;52.90;;;;;;5016684;28;20535;-73
2022/07/03 12:39:47;;;;;;;1.13;0.60;;;23.70;52.80;;;;;;5033739;28;20654;-73
2022/07/03 12:42:21;;;;;;;1.35;0.85;;;23.70;53.00;;;;;;5034159;28;20183;-72
2022/07/03 12:44:59;;;;;;;0.63;0.60;;;23.60;53.10;;;;;;5034297;28;20211;-74
2022/07/03 12:47:25;;;;;;;0.93;0.77;;;23.60;53.10;;;;;;5033654;28;20190;-73
2022/07/03 12:49:58;;;;;;;0.80;0.80;;;23.60;53.30;;;;;;5033905;28;20237;-74
2022/07/03 12:52:24;;;;;;;3.63;0.90;;;23.70;53.00;;;;;;5033689;28;20184;-73
2022/07/03 12:54:49;;;;;;;1.08;0.93;;;23.80;52.80;;;;;;5033466;28;20582;-74
2022/07/03 13:00:16;;;;;;;0.95;0.80;;;23.70;52.80;;;;;;5033122;28;20226;-73
2022/07/03 13:02:42;;;;;;;0.70;0.50;;;23.70;52.50;;;;;;5033490;28;20762;-72
2022/07/03 13:05:17;;;;;;;1.23;0.77;;;23.80;52.50;;;;;;5034308;28;20255;-72
2022/07/03 13:07:44;;;;;;;0.90;0.90;;;23.90;52.40;;;;;;5033088;28;20183;-70
2022/07/03 13:10:09;;;;;;;1.50;0.70;;;23.90;52.30;;;;;;5033828;28;20180;-70
2022/07/03 13:12:40;;;;;;;1.38;0.90;;;23.80;52.30;;;;;;5033781;28;20183;-73